createdAt,value
2019-06-26T00:00:59.138Z,7.43
2019-06-26T00:03:29.782Z,7.10
2019-06-26T00:06:01.136Z,7.50
2019-06-26T00:08:31.974Z,6.97
2019-06-26T00:11:02.799Z,6.70
2019-06-26T00:13:33.552Z,5.60
2019-06-26T00:16:04.729Z,6.83
2019-06-26T00:18:35.420Z,6.80
2019-06-26T00:21:06.096Z,7.27
2019-06-26T00:23:36.132Z,7.13
2019-06-26T00:26:06.189Z,7.50
2019-06-26T00:28:36.279Z,7.40
2019-06-26T00:31:06.418Z,7.10
2019-06-26T00:33:36.588Z,7.40
2019-06-26T00:36:06.661Z,6.53
2019-06-26T00:38:39.969Z,7.33
2019-06-26T00:41:08.546Z,7.27
2019-06-26T00:43:42.525Z,7.60
2019-06-26T00:46:11.580Z,7.40
2019-06-26T00:48:42.164Z,7.73
2019-06-26T00:51:12.205Z,7.00
2019-06-26T00:53:42.371Z,7.13
2019-06-26T00:56:12.403Z,7.43
2019-06-26T00:58:42.435Z,7.33
2019-06-26T01:01:12.692Z,7.60
2019-06-26T01:03:43.284Z,7.63
2019-06-26T01:06:32.413Z,7.90
2019-06-26T01:09:02.487Z,8.07
2019-06-26T01:11:32.571Z,7.60
2019-06-26T01:14:02.593Z,7.67
2019-06-26T01:16:32.880Z,8.43
2019-06-26T01:19:02.920Z,8.30
2019-06-26T01:21:34.006Z,8.37
2019-06-26T01:24:04.171Z,8.27
2019-06-26T01:26:34.224Z,8.53
2019-06-26T01:29:04.506Z,8.17
2019-06-26T01:31:34.794Z,7.80
2019-06-26T01:34:04.867Z,7.80
2019-06-26T01:36:34.882Z,8.47
2019-06-26T01:39:06.206Z,8.83
2019-06-26T01:41:36.417Z,9.17
2019-06-26T01:44:14.745Z,8.67
2019-06-26T01:46:38.489Z,9.30
2019-06-26T01:49:08.571Z,9.03
2019-06-26T01:51:39.262Z,8.73
2019-06-26T01:54:09.832Z,8.93
2019-06-26T01:56:39.892Z,9.60
2019-06-26T01:59:10.202Z,8.97
2019-06-26T02:01:40.344Z,10.37
2019-06-26T02:04:10.743Z,9.60
2019-06-26T02:06:41.843Z,9.50
2019-06-26T02:09:12.120Z,9.40
2019-06-26T02:11:42.136Z,9.30
2019-06-26T02:14:12.227Z,9.40
2019-06-26T02:16:42.289Z,9.50
2019-06-26T02:19:13.578Z,8.80
2019-06-26T02:21:43.759Z,9.17
2019-06-26T02:24:13.844Z,9.27
2019-06-26T02:26:43.946Z,9.73
2019-06-26T02:29:14.017Z,9.33
2019-06-26T02:31:44.247Z,9.23
2019-06-26T02:34:14.297Z,8.63
2019-06-26T02:36:44.849Z,9.27
2019-06-26T02:39:14.859Z,9.23
2019-06-26T02:41:44.965Z,9.67
2019-06-26T02:44:15.023Z,9.47
2019-06-26T02:46:45.096Z,9.97
2019-06-26T02:49:15.232Z,10.03
2019-06-26T02:51:45.320Z,9.57
2019-06-26T02:54:15.362Z,9.63
2019-06-26T02:56:45.517Z,9.47
2019-06-26T02:59:15.546Z,9.07
2019-06-26T03:01:45.637Z,9.60
2019-06-26T03:04:15.676Z,9.10
2019-06-26T03:06:45.701Z,10.10
2019-06-26T03:09:15.847Z,10.23
2019-06-26T03:11:46.525Z,10.33
2019-06-26T03:14:16.634Z,10.13
2019-06-26T03:16:46.720Z,9.90
2019-06-26T03:19:16.919Z,10.20
2019-06-26T03:21:47.377Z,9.70
2019-06-26T03:24:17.469Z,9.40
2019-06-26T03:26:47.541Z,9.47
2019-06-26T03:29:17.602Z,9.47
2019-06-26T03:31:47.874Z,9.90
2019-06-26T03:34:17.982Z,10.67
2019-06-26T03:36:48.023Z,9.43
2019-06-26T03:39:18.074Z,10.03
2019-06-26T03:41:48.734Z,11.10
2019-06-26T03:44:18.860Z,10.03
2019-06-26T03:46:48.898Z,10.03
2019-06-26T03:49:18.962Z,10.00
2019-06-26T03:51:49.493Z,9.80
2019-06-26T03:54:19.663Z,9.57
2019-06-26T03:56:49.749Z,9.93
2019-06-26T03:59:19.848Z,10.07
2019-06-26T04:01:50.196Z,9.67
2019-06-26T04:04:20.322Z,10.27
2019-06-26T04:06:50.419Z,9.77
2019-06-26T04:09:20.481Z,10.10
2019-06-26T04:11:51.509Z,10.70
2019-06-26T04:14:21.527Z,10.73
2019-06-26T04:16:51.637Z,9.97
2019-06-26T04:19:21.892Z,10.53
2019-06-26T04:21:56.214Z,11.47
2019-06-26T04:24:28.939Z,9.87
2019-06-26T04:26:59.002Z,10.13
2019-06-26T04:29:29.062Z,10.40
2019-06-26T04:31:59.160Z,10.37
2019-06-26T04:34:29.437Z,9.77
2019-06-26T04:36:59.559Z,10.10
2019-06-26T04:39:29.660Z,10.13
2019-06-26T04:41:59.723Z,10.00
2019-06-26T04:44:29.821Z,10.73
2019-06-26T04:46:59.908Z,10.60
2019-06-26T04:49:30.073Z,10.20
2019-06-26T04:52:00.126Z,10.53
2019-06-26T04:54:30.201Z,10.20
2019-06-26T04:57:00.291Z,10.03
2019-06-26T04:59:30.418Z,10.30
2019-06-26T05:02:00.562Z,10.03
2019-06-26T05:04:30.707Z,10.87
2019-06-26T05:07:00.751Z,10.30
2019-06-26T05:09:30.780Z,11.00
2019-06-26T05:12:00.833Z,10.57
2019-06-26T05:14:30.899Z,9.97
2019-06-26T05:17:00.977Z,9.80
2019-06-26T05:19:31.053Z,10.10
2019-06-26T05:22:01.137Z,9.57
2019-06-26T05:24:31.171Z,10.03
2019-06-26T05:27:01.286Z,9.83
2019-06-26T05:29:31.333Z,10.63
2019-06-26T05:32:01.427Z,10.27
2019-06-26T05:34:31.520Z,10.80
2019-06-26T05:37:01.578Z,10.03
2019-06-26T05:39:31.630Z,10.40
2019-06-26T05:42:01.661Z,9.87
2019-06-26T05:44:31.725Z,10.20
2019-06-26T05:47:01.779Z,10.00
2019-06-26T05:49:31.818Z,11.17
2019-06-26T05:52:02.272Z,10.63
2019-06-26T05:54:32.471Z,9.93
2019-06-26T05:57:02.588Z,11.27
2019-06-26T05:59:32.625Z,9.70
2019-06-26T06:02:02.643Z,9.70
2019-06-26T06:04:32.690Z,10.10
2019-06-26T06:07:02.791Z,9.57
2019-06-26T06:09:32.978Z,9.77
2019-06-26T06:12:03.048Z,10.57
2019-06-26T06:14:33.090Z,10.50
2019-06-26T06:17:03.237Z,10.60
2019-06-26T06:19:33.337Z,11.53
2019-06-26T06:22:03.421Z,10.87
2019-06-26T06:24:33.487Z,11.13
2019-06-26T06:27:03.633Z,11.33
2019-06-26T06:29:33.709Z,11.30
2019-06-26T06:32:03.788Z,11.17
2019-06-26T06:34:33.918Z,10.90
2019-06-26T06:37:04.022Z,12.23
2019-06-26T06:39:34.078Z,12.60
2019-06-26T06:42:04.116Z,11.57
2019-06-26T06:44:34.251Z,11.47
2019-06-26T06:47:05.675Z,11.10
2019-06-26T06:49:36.098Z,11.33
2019-06-26T06:52:06.170Z,11.33
2019-06-26T06:54:36.200Z,11.47
2019-06-26T06:57:06.255Z,11.53
2019-06-26T06:59:36.315Z,11.10
2019-06-26T07:02:06.588Z,11.73
2019-06-26T07:04:36.642Z,11.30
2019-06-26T07:07:06.706Z,11.77
2019-06-26T07:09:36.765Z,11.90
2019-06-26T07:12:06.808Z,10.87
2019-06-26T07:14:36.882Z,10.67
2019-06-26T07:17:20.054Z,10.70
2019-06-26T07:19:38.716Z,10.33
2019-06-26T07:22:08.770Z,10.03
2019-06-26T07:24:39.050Z,10.30
2019-06-26T07:27:09.146Z,11.00
2019-06-26T07:29:39.245Z,10.20
2019-06-26T07:32:09.468Z,10.63
2019-06-26T07:34:39.563Z,10.97
2019-06-26T07:37:09.639Z,9.57
2019-06-26T07:39:41.016Z,10.23
2019-06-26T07:42:13.226Z,9.73
2019-06-26T07:44:45.764Z,9.33
2019-06-26T07:47:22.859Z,8.87
2019-06-26T07:49:48.280Z,9.97
2019-06-26T07:52:18.414Z,9.50
2019-06-26T07:54:48.502Z,8.97
2019-06-26T07:57:18.661Z,9.30
2019-06-26T07:59:48.731Z,8.07
2019-06-26T08:02:18.776Z,8.20
2019-06-26T08:04:48.806Z,8.20
2019-06-26T08:07:18.895Z,8.00
2019-06-26T08:09:49.012Z,8.57
2019-06-26T08:12:19.154Z,8.43
2019-06-26T08:14:52.352Z,8.50
2019-06-26T08:17:22.367Z,8.70
2019-06-26T08:19:52.976Z,8.13
2019-06-26T08:22:23.201Z,7.87
2019-06-26T08:24:53.238Z,8.47
2019-06-26T08:27:23.987Z,8.27
2019-06-26T08:29:54.075Z,8.03
2019-06-26T08:32:26.032Z,8.10
2019-06-26T08:34:57.248Z,8.20
2019-06-26T08:37:28.044Z,8.47
2019-06-26T08:39:58.070Z,7.90
2019-06-26T08:42:28.810Z,7.80
2019-06-26T08:44:58.807Z,7.57
2019-06-26T08:47:29.360Z,7.23
2019-06-26T08:49:59.399Z,6.83
2019-06-26T08:52:30.386Z,7.67
2019-06-26T08:55:00.431Z,7.40
2019-06-26T08:57:30.902Z,7.17
2019-06-26T09:00:00.953Z,6.87
2019-06-26T09:02:31.384Z,6.80
2019-06-26T09:05:01.594Z,7.47
2019-06-26T09:07:32.276Z,6.73
2019-06-26T09:10:02.350Z,6.70
2019-06-26T09:12:32.912Z,6.33
2019-06-26T09:15:03.174Z,6.60
2019-06-26T09:17:34.046Z,5.80
2019-06-26T09:20:04.127Z,6.17
2019-06-26T09:22:34.785Z,7.17
2019-06-26T09:25:20.195Z,7.10
2019-06-26T09:27:36.870Z,7.07
2019-06-26T09:30:07.873Z,6.90
2019-06-26T09:32:38.050Z,6.10
2019-06-26T09:35:10.296Z,6.70
2019-06-26T09:37:40.430Z,6.37
2019-06-26T09:40:10.890Z,6.13
2019-06-26T09:42:41.677Z,6.27
2019-06-26T09:45:12.012Z,6.20
2019-06-26T09:47:43.035Z,5.37
2019-06-26T09:50:13.397Z,5.30
2019-06-26T09:52:43.522Z,5.37
2019-06-26T09:55:13.698Z,5.03
2019-06-26T09:57:43.900Z,5.67
2019-06-26T10:00:15.037Z,5.80
2019-06-26T10:02:45.111Z,5.70
2019-06-26T10:05:15.585Z,5.13
2019-06-26T10:07:45.636Z,4.77
2019-06-26T10:10:16.367Z,4.77
2019-06-26T10:12:46.435Z,5.07
2019-06-26T10:15:16.718Z,4.87
2019-06-26T10:17:46.763Z,5.67
2019-06-26T10:20:18.750Z,4.70
2019-06-26T10:22:48.810Z,4.87
2019-06-26T10:25:18.881Z,4.50
2019-06-26T10:27:49.601Z,4.80
2019-06-26T10:30:20.822Z,4.60
2019-06-26T10:32:50.861Z,4.20
2019-06-26T10:35:21.210Z,4.40
2019-06-26T10:37:51.296Z,4.50
2019-06-26T10:40:21.669Z,4.43
2019-06-26T10:42:51.776Z,4.80
2019-06-26T10:45:21.893Z,3.98
2019-06-26T10:47:51.987Z,3.60
2019-06-26T10:50:22.118Z,4.12
2019-06-26T10:52:52.175Z,4.22
2019-06-26T10:55:22.495Z,3.90
2019-06-26T10:57:52.684Z,3.87
2019-06-26T11:00:23.457Z,4.03
2019-06-26T11:02:53.480Z,4.08
2019-06-26T11:05:23.684Z,4.10
2019-06-26T11:07:53.756Z,4.03
2019-06-26T11:10:24.379Z,3.85
2019-06-26T11:12:54.401Z,3.62
2019-06-26T11:15:24.736Z,4.08
2019-06-26T11:17:54.884Z,4.20
2019-06-26T11:20:26.466Z,4.30
2019-06-26T11:22:57.250Z,4.15
2019-06-26T11:25:29.000Z,4.30
2019-06-26T11:27:59.734Z,4.17
2019-06-26T11:30:30.653Z,4.12
2019-06-26T11:33:01.429Z,4.20
2019-06-26T11:35:32.141Z,4.78
2019-06-26T11:38:02.990Z,3.90
2019-06-26T11:40:33.902Z,4.42
2019-06-26T11:43:04.612Z,4.45
2019-06-26T11:45:35.390Z,4.53
2019-06-26T11:48:06.379Z,4.03
2019-06-26T11:50:37.033Z,4.55
2019-06-26T11:53:07.752Z,4.30
2019-06-26T11:55:38.607Z,4.67
2019-06-26T11:58:09.324Z,5.25
2019-06-26T12:00:41.794Z,4.28
2019-06-26T12:03:13.414Z,4.60
2019-06-26T12:05:46.032Z,4.10
2019-06-26T12:08:18.484Z,4.60
2019-06-26T12:10:49.474Z,3.98
2019-06-26T12:13:20.159Z,4.40
2019-06-26T12:15:51.240Z,4.30
2019-06-26T12:18:21.931Z,4.20
2019-06-26T12:20:52.769Z,4.20
2019-06-26T12:23:23.493Z,4.03
2019-06-26T12:25:54.196Z,4.40
2019-06-26T12:28:25.473Z,4.80
2019-06-26T12:30:56.406Z,4.40
2019-06-26T12:33:27.173Z,5.03
2019-06-26T12:35:57.911Z,5.45
2019-06-26T12:38:28.577Z,4.80
2019-06-26T12:40:59.288Z,5.05
2019-06-26T12:43:30.392Z,4.47
2019-06-26T12:46:01.106Z,4.78
2019-06-26T12:48:31.918Z,4.80
2019-06-26T12:51:02.595Z,4.83
2019-06-26T12:53:33.608Z,4.83
2019-06-26T12:56:04.386Z,4.47
2019-06-26T12:58:35.259Z,4.90
2019-06-26T13:01:06.030Z,4.60
2019-06-26T13:03:36.997Z,4.87
2019-06-26T13:06:08.033Z,5.15
2019-06-26T13:08:39.786Z,4.62
2019-06-26T13:11:10.829Z,4.55
2019-06-26T13:13:41.773Z,4.87
2019-06-26T13:16:12.947Z,5.12
2019-06-26T13:18:44.862Z,5.15
2019-06-26T13:21:15.589Z,5.15
2019-06-26T13:23:46.963Z,4.55
2019-06-26T13:26:17.667Z,5.10
2019-06-26T13:28:49.282Z,5.17
2019-06-26T13:31:22.411Z,4.58
2019-06-26T13:33:53.148Z,5.22
2019-06-26T13:36:23.893Z,4.95
2019-06-26T13:38:54.540Z,4.97
2019-06-26T13:41:25.323Z,4.67
2019-06-26T13:43:56.003Z,5.10
2019-06-26T13:46:27.365Z,4.53
2019-06-26T13:48:58.607Z,4.78
2019-06-26T13:51:29.545Z,4.60
2019-06-26T13:54:00.247Z,5.58
2019-06-26T13:56:30.910Z,4.50
2019-06-26T13:59:01.604Z,4.42
2019-06-26T14:01:50.052Z,4.72
2019-06-26T14:04:20.729Z,4.97
2019-06-26T14:06:51.482Z,4.47
2019-06-26T14:09:22.242Z,4.33
2019-06-26T14:11:53.940Z,4.90
2019-06-26T14:14:40.959Z,4.75
2019-06-26T14:16:57.177Z,4.72
2019-06-26T14:19:29.492Z,5.08
2019-06-26T14:22:00.157Z,4.67
2019-06-26T14:24:30.844Z,4.45
2019-06-26T14:27:01.531Z,4.53
2019-06-26T14:29:33.859Z,4.92
2019-06-26T14:32:04.590Z,4.55
2019-06-26T14:34:35.327Z,4.97
2019-06-26T14:37:05.979Z,4.78
2019-06-26T14:39:36.668Z,4.90
2019-06-26T14:42:07.357Z,4.72
2019-06-26T14:44:40.934Z,4.42
2019-06-26T14:47:11.785Z,4.65
2019-06-26T14:49:42.421Z,4.70
2019-06-26T14:52:13.114Z,4.55
2019-06-26T14:54:44.686Z,4.87
2019-06-26T14:57:15.434Z,5.15
2019-06-26T14:59:46.189Z,4.83
2019-06-26T15:02:16.889Z,5.17
2019-06-26T15:04:47.570Z,5.10
2019-06-26T15:07:18.253Z,4.60
2019-06-26T15:09:49.145Z,5.40
2019-06-26T15:12:19.835Z,4.80
2019-06-26T15:14:50.933Z,4.80
2019-06-26T15:17:21.622Z,4.60
2019-06-26T15:19:53.191Z,5.17
2019-06-26T15:22:23.885Z,4.78
2019-06-26T15:24:55.475Z,5.30
2019-06-26T15:27:26.534Z,4.70
2019-06-26T15:29:57.456Z,4.58
2019-06-26T15:32:28.270Z,5.00
2019-06-26T15:34:59.002Z,4.83
2019-06-26T15:37:30.443Z,5.22
2019-06-26T15:40:01.214Z,4.85
2019-06-26T15:42:31.932Z,4.80
2019-06-26T15:45:02.102Z,5.45
2019-06-26T15:47:32.392Z,5.22
2019-06-26T15:50:03.018Z,5.17
2019-06-26T15:52:33.314Z,4.78
2019-06-26T15:55:03.348Z,5.20
2019-06-26T15:57:33.454Z,4.75
2019-06-26T16:00:03.635Z,4.50
2019-06-26T16:02:33.697Z,4.85
2019-06-26T16:05:04.017Z,5.03
2019-06-26T16:07:34.240Z,5.67
2019-06-26T16:10:04.494Z,5.15
2019-06-26T16:12:34.637Z,5.37
2019-06-26T16:15:06.108Z,4.80
2019-06-26T16:18:01.592Z,4.95
2019-06-26T16:20:31.657Z,5.28
2019-06-26T16:23:01.720Z,5.75
2019-06-26T16:25:32.120Z,4.85
2019-06-26T16:28:05.678Z,5.28
2019-06-26T16:30:34.145Z,4.83
2019-06-26T16:33:04.368Z,5.00
2019-06-26T16:35:34.404Z,5.05
2019-06-26T16:38:04.506Z,5.65
2019-06-26T16:40:34.604Z,5.12
2019-06-26T16:43:04.748Z,5.15
2019-06-26T16:45:34.882Z,5.00
2019-06-26T16:48:04.964Z,5.10
2019-06-26T16:50:35.040Z,5.50
2019-06-26T16:53:05.178Z,4.92
2019-06-26T16:55:35.209Z,4.97
2019-06-26T16:58:05.403Z,4.55
2019-06-26T17:00:35.800Z,5.17
2019-06-26T17:03:06.261Z,4.95
2019-06-26T17:05:36.575Z,4.92
2019-06-26T17:08:07.102Z,5.25
2019-06-26T17:10:37.292Z,5.05
2019-06-26T17:13:08.161Z,4.77
2019-06-26T17:15:38.950Z,4.75
2019-06-26T17:18:08.973Z,5.12
2019-06-26T17:20:39.060Z,5.25
2019-06-26T17:23:10.240Z,5.47
2019-06-26T17:25:41.148Z,4.93
2019-06-26T17:28:11.200Z,4.65
2019-06-26T17:30:42.413Z,4.62
2019-06-26T17:33:12.559Z,4.90
2019-06-26T17:35:42.810Z,5.20
2019-06-26T17:38:12.867Z,4.60
2019-06-26T17:40:42.907Z,5.53
2019-06-26T17:43:13.198Z,5.03
2019-06-26T17:45:43.822Z,4.70
2019-06-26T17:48:13.917Z,4.70
2019-06-26T17:50:44.607Z,4.70
2019-06-26T17:53:21.766Z,5.10
2019-06-26T17:55:47.714Z,4.70
2019-06-26T17:58:17.962Z,4.40
2019-06-26T18:00:48.042Z,5.00
2019-06-26T18:03:18.202Z,4.73
2019-06-26T18:05:48.214Z,4.63
2019-06-26T18:08:18.435Z,4.67
2019-06-26T18:10:48.578Z,5.20
2019-06-26T18:13:18.742Z,4.73
2019-06-26T18:15:48.776Z,4.57
2019-06-26T18:18:19.168Z,4.73
2019-06-26T18:20:49.251Z,4.27
2019-06-26T18:23:19.381Z,4.63
2019-06-26T18:25:54.167Z,4.73
2019-06-26T18:28:21.325Z,3.97
2019-06-26T18:30:51.483Z,3.80
2019-06-26T18:33:21.560Z,4.20
2019-06-26T18:35:52.151Z,3.90
2019-06-26T18:38:22.305Z,3.87
2019-06-26T18:40:52.415Z,4.27
2019-06-26T18:43:22.512Z,4.20
2019-06-26T18:45:52.672Z,4.07
2019-06-26T18:48:24.880Z,4.00
2019-06-26T18:50:54.577Z,4.00
2019-06-26T18:53:24.622Z,3.70
2019-06-26T18:55:54.817Z,4.43
2019-06-26T18:58:24.940Z,3.10
2019-06-26T19:00:55.003Z,4.00
2019-06-26T19:03:25.237Z,3.47
2019-06-26T19:05:55.585Z,3.40
2019-06-26T19:08:25.685Z,3.60
2019-06-26T19:10:55.798Z,3.20
2019-06-26T19:13:26.169Z,2.93
2019-06-26T19:15:56.347Z,3.00
2019-06-26T19:18:26.433Z,2.90
2019-06-26T19:20:56.578Z,2.67
2019-06-26T19:23:28.319Z,2.70
2019-06-26T19:25:58.514Z,2.00
2019-06-26T19:28:29.439Z,2.07
2019-06-26T19:30:59.709Z,2.20
2019-06-26T19:33:29.792Z,2.00
2019-06-26T19:36:05.279Z,1.93
2019-06-26T19:38:35.330Z,1.90
2019-06-26T19:41:08.477Z,2.40
2019-06-26T19:43:45.858Z,1.70
2019-06-26T19:46:24.417Z,2.33
2019-06-26T19:49:02.638Z,2.33
2019-06-26T19:51:32.978Z,2.10
2019-06-26T19:54:03.109Z,2.03
2019-06-26T19:56:33.259Z,2.30
2019-06-26T19:59:03.366Z,2.20
2019-06-26T20:01:33.614Z,2.10
2019-06-26T20:04:03.664Z,2.27
2019-06-26T20:06:33.790Z,2.37
2019-06-26T20:09:05.095Z,2.27
2019-06-26T20:11:35.228Z,2.47
2019-06-26T20:14:05.285Z,2.30
2019-06-26T20:16:35.496Z,2.40
2019-06-26T20:19:05.549Z,2.27
2019-06-26T20:21:36.790Z,2.10
2019-06-26T20:24:07.565Z,2.33
2019-06-26T20:26:37.858Z,2.87
2019-06-26T20:29:14.229Z,2.73
2019-06-26T20:31:54.649Z,2.77
2019-06-26T20:34:31.285Z,3.17
2019-06-26T20:37:01.656Z,2.70
2019-06-26T20:39:32.026Z,2.83
2019-06-26T20:42:02.117Z,3.10
2019-06-26T20:44:32.178Z,3.07
2019-06-26T20:47:02.200Z,2.93
2019-06-26T20:49:32.690Z,3.00
2019-06-26T20:52:02.812Z,3.50
2019-06-26T20:54:32.869Z,3.70
2019-06-26T20:57:04.365Z,4.17
2019-06-26T20:59:34.542Z,3.43
2019-06-26T21:02:04.764Z,3.63
2019-06-26T21:04:36.301Z,4.03
2019-06-26T21:07:06.342Z,3.87
2019-06-26T21:09:36.727Z,4.27
2019-06-26T21:12:07.521Z,3.73
2019-06-26T21:14:39.937Z,4.00
2019-06-26T21:17:10.037Z,3.40
2019-06-26T21:19:40.167Z,3.87
2019-06-26T21:22:10.753Z,4.17
2019-06-26T21:24:41.381Z,3.83
2019-06-26T21:27:11.474Z,3.53
2019-06-26T21:29:41.763Z,4.10
2019-06-26T21:32:13.237Z,3.90
2019-06-26T21:34:45.101Z,3.87
2019-06-26T21:37:16.017Z,4.27
2019-06-26T21:39:46.110Z,3.93
2019-06-26T21:42:16.591Z,3.87
2019-06-26T21:44:50.676Z,3.90
2019-06-26T21:47:20.742Z,4.03
2019-06-26T21:49:50.797Z,4.13
2019-06-26T21:52:20.895Z,3.97
2019-06-26T21:54:51.727Z,3.70
2019-06-26T21:57:22.232Z,3.70
2019-06-26T21:59:52.659Z,4.10
2019-06-26T22:02:22.963Z,4.10
2019-06-26T22:04:53.124Z,4.03
2019-06-26T22:07:23.148Z,3.70
2019-06-26T22:09:53.251Z,3.70
2019-06-26T22:12:23.325Z,4.03
2019-06-26T22:14:53.397Z,3.73
2019-06-26T22:17:23.573Z,4.00
2019-06-26T22:19:53.712Z,3.97
2019-06-26T22:22:23.754Z,3.80
2019-06-26T22:24:53.876Z,3.87
2019-06-26T22:27:23.895Z,3.83
2019-06-26T22:29:53.954Z,3.87
2019-06-26T22:32:24.018Z,4.60
2019-06-26T22:34:54.051Z,4.27
2019-06-26T22:37:24.149Z,4.60
2019-06-26T22:39:54.217Z,3.60
2019-06-26T22:42:24.381Z,3.93
2019-06-26T22:44:54.480Z,3.50
2019-06-26T22:47:24.539Z,3.23
2019-06-26T22:49:54.588Z,3.33
2019-06-26T22:52:24.638Z,3.17
2019-06-26T22:54:54.726Z,3.47
2019-06-26T22:57:25.589Z,3.40
2019-06-26T22:59:55.648Z,2.90
2019-06-26T23:02:25.725Z,2.97
2019-06-26T23:04:55.788Z,3.30
2019-06-26T23:07:25.863Z,2.80
2019-06-26T23:09:55.925Z,3.30
2019-06-26T23:12:25.983Z,3.53
2019-06-26T23:14:56.033Z,3.37
2019-06-26T23:17:26.089Z,2.70
2019-06-26T23:19:56.117Z,3.20
2019-06-26T23:22:26.362Z,2.73
2019-06-26T23:24:56.388Z,2.53
2019-06-26T23:27:26.422Z,2.80
2019-06-26T23:29:56.576Z,2.47
2019-06-26T23:32:26.714Z,2.70
2019-06-26T23:34:57.604Z,2.13
2019-06-26T23:37:27.982Z,2.60
2019-06-26T23:39:58.032Z,2.67
2019-06-26T23:42:28.105Z,2.83
2019-06-26T23:44:58.264Z,2.57
2019-06-26T23:47:28.296Z,2.60
2019-06-26T23:49:58.378Z,2.33
2019-06-26T23:52:28.572Z,2.40
2019-06-26T23:54:58.753Z,2.50
2019-06-26T23:57:28.778Z,3.00
2019-06-26T23:59:58.844Z,2.40
